createdAt,value
2019-05-07T00:00:33.018Z,1.47
2019-05-07T00:03:03.284Z,1.73
2019-05-07T00:05:33.174Z,2.00
2019-05-07T00:08:03.037Z,1.80
2019-05-07T00:10:33.190Z,1.77
2019-05-07T00:13:02.586Z,2.23
2019-05-07T00:15:32.773Z,2.50
2019-05-07T00:18:03.155Z,1.63
2019-05-07T00:20:32.828Z,1.80
2019-05-07T00:23:02.918Z,2.27
2019-05-07T00:25:32.791Z,1.97
2019-05-07T00:28:02.888Z,2.20
2019-05-07T00:30:33.140Z,1.90
2019-05-07T00:33:02.866Z,2.20
2019-05-07T00:35:33.581Z,4.80
2019-05-07T00:38:06.876Z,3.20
2019-05-07T00:40:37.441Z,2.63
2019-05-07T00:43:08.264Z,2.87
2019-05-07T00:45:44.570Z,3.00
2019-05-07T00:48:13.786Z,2.90
2019-05-07T00:50:44.355Z,3.67
2019-05-07T00:53:13.547Z,2.90
2019-05-07T00:55:42.734Z,3.00
2019-05-07T00:58:13.237Z,3.10
2019-05-07T01:00:42.618Z,3.30
2019-05-07T01:03:12.825Z,3.43
2019-05-07T01:05:43.237Z,3.23
2019-05-07T01:08:13.287Z,2.70
2019-05-07T01:10:42.270Z,2.47
2019-05-07T01:13:12.539Z,2.60
2019-05-07T01:15:43.046Z,2.67
2019-05-07T01:18:13.118Z,2.30
2019-05-07T01:20:42.470Z,2.63
2019-05-07T01:23:13.385Z,2.63
2019-05-07T01:25:43.072Z,2.73
2019-05-07T01:28:13.186Z,2.43
2019-05-07T01:30:43.559Z,2.73
2019-05-07T01:33:30.490Z,2.40
2019-05-07T01:36:07.221Z,2.70
2019-05-07T01:38:36.179Z,2.73
2019-05-07T01:41:05.103Z,2.43
2019-05-07T01:43:34.051Z,2.93
2019-05-07T01:46:03.281Z,2.43
2019-05-07T01:48:32.562Z,2.40
2019-05-07T01:51:03.439Z,2.37
2019-05-07T01:53:33.824Z,2.50
2019-05-07T01:56:03.425Z,2.50
2019-05-07T01:58:33.295Z,2.73
2019-05-07T02:01:02.941Z,2.73
2019-05-07T02:03:50.254Z,2.60
2019-05-07T02:06:32.837Z,2.93
2019-05-07T02:09:10.907Z,3.10
2019-05-07T02:11:43.858Z,3.00
2019-05-07T02:14:13.671Z,2.67
2019-05-07T02:16:42.719Z,2.53
2019-05-07T02:19:12.631Z,2.63
2019-05-07T02:21:42.328Z,2.60
2019-05-07T02:24:12.642Z,2.80
2019-05-07T02:26:42.696Z,2.47
2019-05-07T02:29:13.089Z,2.63
2019-05-07T02:31:44.079Z,3.00
2019-05-07T02:34:14.034Z,2.30
2019-05-07T02:36:43.633Z,3.23
2019-05-07T02:39:23.751Z,2.83
2019-05-07T02:41:53.921Z,2.60
2019-05-07T02:44:23.203Z,2.47
2019-05-07T02:46:56.344Z,2.90
2019-05-07T02:49:32.626Z,2.33
2019-05-07T02:52:18.427Z,3.00
2019-05-07T02:54:58.156Z,2.57
2019-05-07T02:57:29.239Z,2.93
2019-05-07T02:59:58.504Z,2.13
2019-05-07T03:02:27.784Z,2.70
2019-05-07T03:04:56.727Z,3.10
2019-05-07T03:07:25.951Z,2.67
2019-05-07T03:09:54.937Z,2.53
2019-05-07T03:12:24.199Z,2.33
2019-05-07T03:14:53.965Z,2.70
2019-05-07T03:17:24.815Z,3.00
2019-05-07T03:19:55.039Z,2.57
2019-05-07T03:22:24.259Z,2.83
2019-05-07T03:24:55.112Z,2.23
2019-05-07T03:27:24.053Z,2.67
2019-05-07T03:29:54.875Z,2.33
2019-05-07T03:32:39.822Z,2.90
2019-05-07T03:35:27.802Z,2.77
2019-05-07T03:37:57.421Z,2.73
2019-05-07T03:40:26.672Z,4.13
2019-05-07T03:42:55.888Z,2.73
2019-05-07T03:45:26.475Z,2.60
2019-05-07T03:48:03.716Z,2.50
2019-05-07T03:50:33.815Z,2.40
2019-05-07T03:53:03.257Z,2.67
2019-05-07T03:55:33.183Z,3.33
2019-05-07T03:58:03.102Z,2.70
2019-05-07T04:00:33.402Z,3.10
2019-05-07T04:03:03.651Z,3.20
2019-05-07T04:05:34.289Z,4.33
2019-05-07T04:08:03.791Z,3.50
2019-05-07T04:10:34.148Z,4.60
2019-05-07T04:13:04.469Z,4.60
2019-05-07T04:15:34.054Z,3.77
2019-05-07T04:18:03.837Z,3.80
2019-05-07T04:20:33.522Z,4.22
2019-05-07T04:23:04.293Z,3.50
2019-05-07T04:25:43.437Z,3.73
2019-05-07T04:28:16.367Z,2.52
2019-05-07T04:30:45.398Z,3.60
2019-05-07T04:33:18.794Z,3.37
2019-05-07T04:35:49.451Z,2.72
2019-05-07T04:38:18.460Z,3.33
2019-05-07T04:40:47.417Z,3.17
2019-05-07T04:43:16.359Z,3.55
2019-05-07T04:45:45.618Z,4.28
2019-05-07T04:48:14.644Z,3.50
2019-05-07T04:50:47.658Z,4.33
2019-05-07T04:53:16.577Z,3.37
2019-05-07T04:55:45.875Z,2.77
2019-05-07T04:58:15.094Z,4.10
2019-05-07T05:00:44.792Z,3.27
2019-05-07T05:03:18.396Z,3.42
2019-05-07T05:05:47.684Z,3.95
2019-05-07T05:08:16.622Z,4.05
2019-05-07T05:10:45.561Z,3.27
2019-05-07T05:13:14.878Z,2.87
2019-05-07T05:15:43.820Z,3.02
2019-05-07T05:18:12.970Z,3.27
2019-05-07T05:20:51.807Z,3.20
2019-05-07T15:24:46.781Z,1.35
2019-05-07T15:27:19.344Z,1.22
2019-05-07T15:29:48.597Z,2.02
2019-05-07T15:32:18.206Z,1.95
2019-05-07T15:34:47.620Z,2.27
2019-05-07T15:37:18.388Z,2.25
2019-05-07T15:39:47.487Z,1.92
2019-05-07T15:42:16.435Z,1.80
2019-05-07T15:44:45.397Z,2.42
2019-05-07T15:47:15.967Z,1.60
2019-05-07T15:49:45.887Z,1.87
2019-05-07T15:52:16.468Z,1.25
2019-05-07T15:54:45.689Z,1.57
2019-05-07T15:57:22.410Z,1.98
2019-05-07T15:59:53.107Z,1.52
2019-05-07T16:02:32.034Z,2.42
2019-05-07T16:05:02.197Z,1.00
2019-05-07T16:07:32.784Z,1.37
2019-05-07T16:10:03.287Z,1.55
2019-05-07T16:12:32.315Z,1.20
2019-05-07T16:15:03.152Z,1.12
2019-05-07T16:17:52.081Z,1.27
2019-05-07T16:20:22.716Z,1.40
2019-05-07T16:22:55.122Z,1.20
2019-05-07T16:25:23.766Z,1.25
2019-05-07T16:27:52.820Z,1.35
2019-05-07T16:30:22.860Z,1.40
2019-05-07T16:32:55.218Z,1.37
2019-05-07T16:35:22.850Z,2.12
2019-05-07T16:37:52.180Z,1.07
2019-05-07T16:40:22.942Z,1.02
2019-05-07T16:42:52.538Z,1.10
2019-05-07T16:45:21.599Z,1.70
2019-05-07T16:47:52.142Z,1.10
2019-05-07T16:50:22.381Z,1.25
2019-05-07T16:52:52.450Z,1.00
2019-05-07T16:55:23.371Z,1.35
